Race Results for
Sea Otter Classic-USCF
Monterey, CA
(Event Information)
This is a non-competitive event
Road Race on 04/16/2004

Note: Ranking points are NOT upgrade points. An explanation of ranking points can be found here.


Men - Junior - JR - 15-16

 Place NameCity, StateTime USAC #BibTeam
1 COLLIN SAMAAN   02:20:06.3  2439 
2 Jorge Yepez   Lakewood , CA02:20:06.8 186598  2432 DARE RACING TEAM
3 CHRIS BARTON   02:20:19.5  2440 BICYCLES OF OUAI
4 Blake Anton   Arroyo Grande, CA02:20:28.7 192686  2433 DAVIS BIKE CLUB RACE TEAM
5 Clifford Redig   Tucson, AZ02:21:13.7 144128  2425 
6 Nick Keller   Tempe, AZ02:22:34.2 187853  2409 DOMENICS CYCLING/STRADA RACING CLUB
7 Adolfo Garcia   Anahiem, CA02:22:41.6 197207  2417 MAJOR MOTION
9 Benny Volotzky   Chatsworth, CA02:28:33.2 200734  2435 ENCENOVELO
10 Jens Brabbit   La Crosse02:29:18.6 184406  2423 MNJRC
11 Joe Iannarelli   Vacaville, CA02:31:24.3 195783  2434 TEAM SWIFT
12 GAELAN MUNDORFF   02:31:27.2  2424 
13 Nico Cianfrocca   Ada, MI02:31:43.6 178906  2416 MAJOR MOTION
14 Spencer Spagnola   La Mesa, CA02:32:31.2 193044  2421 
15 Travis Enmon   Minneapolis, MN02:32:31.5 192487  2402 
16 Jacob Morris   Newbury Park, CA02:32:32.2 176178  2427 AMGEN CYCLING
17 Alexander Wick   Davis, CA02:32:52.2 196337  2430 DAVIS BIKE CLUB
18 JULIAN MARTINEZ   02:32:54.2  2426 TIENI DURO
19 Charles Hamilton   Concord, CA02:32:59.6 196264  2438 TIENI DURO
20 Alfredo Cruz   San Ysidro, CA02:33:07.8 167682  2420 MAJOR MOTION
21 GRAYSEN OLDHAM   02:40:17.1  2437 TEAM BAKO
22 Joseph Little   Reno, NV02:45:55.6 196230  2410 
23 WYATT HONSE   02:46:50.2  2406 
24 Tyler Gough   Middletown, CA02:48:13.8 204630  2404 
25 LUKE RAMSETH   02:49:56.2  2429 
26 James Ryan   San Jose, CA02:50:23.6 163902  2413 
27 LARS HOLMGREN   02:50:44.2  2408 VANINI
28 Justin Williams   Los Angeles02:50:50.2 197316  2415 MAJOR MOTION
29 Terence Wedam   Klamath Falls, OR02:52:03.3 196434  2419 
30 Peter Bain   Concord, CA02:53:21.1 203325  2405 TIENI DURO
31 Frank Albanez   Alhambra, CA03:01:03.1 199480  2422 MAJOR MOTION
32 MILES PAYTON   03:23:51.0  2436 

Men - Junior - JR - 17-18

 Place NameCity, StateTime USAC #BibTeam
1 Shawn Rosenthal   Berkeley, CA02:19:49.2 196247  2303 TIENI DURO!!!
2 Alexander Boyd   Wichita Falls, TX02:19:49.7 168212  2342 MAJOR MOTION CYCLING CLUB
3 JACO VENTER   02:19:49.7  2328 
4 Eric Riggs   Antelope, CA02:19:50.1 191302  2317 SF VELOSPORT/LOMBARDI SPORTS/THE CENTER
5 Christopher Trembly   Beaumont, CA02:19:50.2 157683  2336 MAJOR MOTION
6 Stevie Cullinan   Paradise Valley, AZ02:19:50.6 126775  2313 STRADA CYCLING CLUB
7 Colter Cederlof   San Jose, CA02:19:50.7 188745  2315 
8 Max Spirin   Citrus Heights, CA02:19:52.2 195652  2308 TIENI DURO
9 Adam Switters   Citrus Heights, CA02:20:05.7 127093  2309 LOMBARDI SPORTS/ THE CENTER
10 Chad Beyer   Tucson, AZ02:20:05.9 155190  2334 
11 Clint Rogers   Sacramento, CA02:20:06.8 195220  2322 G S LOMBARDI
12 Sean Van Horn   Mercer Island, WA02:20:07.2 194621  2340 
13 Christoph Hurley   Greensburg, PA02:20:23.6 187587  2306 INTERMOUNTAIN ORTHOPEDICS CYCLING
14 Alexi Martinez   Costa Mesa, CA02:20:25.2 190569  2329 EXCEL SPORTS
15 Michael Margraf   Auburn, CA02:20:25.6 128847  2301 TEAM SWIFT
16 Michael Sheppard   Oak Hills, CA02:20:25.7 200878  2332 MAJOR MOTION
17 Mitchell Peterson   Salt Lake City, UT02:20:26.9 192669  2300 DEVO
18 CHASE RENICK   02:20:29.4  2345 TEAM SWIFT
19 Alexander Welch   Denver, CO02:20:30.1 186958  2312 
21 Brian Janezic   Tucson, AZ02:20:31.0 179816  2320 REVOLUTION RACING
22 James (Jimmy) Feely   Eagan, MN02:21:26.7 198125  2343 MINNESOTA JUNIOR CYCLING (MNJRC)
23 Ulric DeYoung   Hereford, AZ02:21:27.5 180855  2302 
24 ANTON NICOLA   02:21:37.9  767 
25 Joe Lewis   Edina, MN02:24:57.7 184027  2341 MINNESOTA JUNIOR CYCLING
26 Geoff Olin   Woodland Hills, CA02:27:48.2 201107  2331 AMGEN
27 Jared Downing   Whittier, CA02:31:26.0 189077  2338 MAJOR MOTION
28 JARRETT SEXTON   02:31:27.7  2339 
30 Rajiv Eluthesen   Clayton, CA02:40:50.5 188946  2310 TIENI DURO
31 Jason Awe   Scotts Valley, CA02:43:23.0 156276  2349 WHITE JERSEY SPORTS
32 Nathan Sowle   Reno, NV02:43:28.2 198492  2304 RENO WHEELMEN
33 Travis Stebbins   Blanchard, MI02:50:49.8 192376  2311 TEAM BIKESPORT
34 Jonathan Cintz   Aptos, CA02:58:23.1 209337  2347 

Men - Master - MR - 50-59

 Place NameCity, StateTime USAC #BibTeam
1 Arnie Baker   San Diego, CA02:18:45.0 48559  1630 CYCLO-VETS
2 Wayne Stetina   Mission Viejo, CA02:19:39.2 34063  1636 US POSTAL SERVICE
3 Thomas Doughty   Aurora, IL02:20:26.7 45274  1622 USPS MASTERS - TAILWINDS SPORTS
4 William Tippets   La Jolla, CA02:21:37.8 125634  1640 
5 Evan Kapel   Santa Cruz, CA02:23:17.6 158232  1645 SANTA CRUZ SPOKESMAN
6 PAUL MCKENZIE   02:25:41.4  1647 CLIF BAR
7 Ron LeBard   Grass Valley, CA02:26:33.0 125445  1628 WEBCOR
8 John Zunino   Arnold, CA02:27:57.3 196757  1608 
9 Jim Karanas   Lafayette, CA02:28:39.3 187558  1648 CLUB ONE PMAX RACING
10 Jon Miller   Newbury Park, CA02:30:10.3 167489  1605 AMGEN CYCLING
11 WADE BAKER   02:30:12.0  1644 
12 Joseph (Pat) McNulty   Belmont, CA02:30:15.1 195376  1606 
13 Jim Rhiner   Gardnerville, NV02:31:31.6 179383  1600 ALTA ALPINA CYCLING CLUB
14 Scott Hennessy   Salinas, CA02:32:05.0 15827  1624 
15 John Eidt   Little Rock, AR02:33:43.4 173514  1642 
16 KEN HUNT   02:36:19.9  1611 
17 Paul Smith   San Rafael, CA02:36:33.7 205531  1646 
18 Jack Kelso   Pleasanton, CA02:38:04.3 202171  1634 
19 Daniel Schmidt   Placerville, CA02:38:34.2 31627  1612 
20 CLIFF RUNGE   02:40:44.9  1619 
21 Michael Eakins   Carmel, CA02:42:29.3 203352  1617 EFPNSPORTS@SBCGLOBAL.NET
22 Albert Barreto   Monterey, CA02:42:33.7 195743  1610 EARTHBOUND FARM ORGANIC RACE TEAM
23 George Chester   Oxnard, CA02:42:59.7 196820  1618 
24 Walter Chudleigh   Park City, UT02:44:07.4 176829  1641 
25 Ernest Gallardo   Soledad Ca.02:44:22.0 12682  1652 MAKO-GALAXY
26 David Thompson   Tres Pinos, CA02:44:44.2 200874  1631 SAN DIEGO CYCLO-VETS
27 Edward Cronin   Manchester, VT02:47:06.8 187261  1602 
28 CHARLES MOORE   02:48:47.7  1638 MCGUIRE CYCLING
29 Jim Garwood   Santa Barbara, CA02:52:56.4 169688  1621 
30 Donald Russell   Philipsburg, MT02:58:30.6 62984  1616 FIVE VALLEY VELO
31 WEST CLARK   02:59:37.9  1629 
32 James Wrona   Prunedale, CA03:01:32.2 204278  1650 
33 GERHARD LOCKE   03:05:52.3  1609 
34 JIM WHEARY   03:11:23.3  1632 
35 TERRY ALEXANDER   03:14:42.6  1613 
36 GARY CORNETTE   03:16:25.7  1615 

Men - Master - MR - 60-99

 Place NameCity, StateTime USAC #BibTeam
1 Jim Fox   Aptos, CA02:28:04.0 196250  1706 MAKO-GALAXY GRANOLA
2 Richard Shields   Fremont, CA02:28:04.5 140693  1711 MAKO GALAXY GRANOLA
3 Michael Freeman   Martinez, CA02:28:04.6 12357  1708 CVC/HAMMER NUTRITION
4 Harold (Butch) Richardson   San Diego, CA02:29:01.7 186694  1702 
5 Robert Brooks   Auberry, CA02:31:26.5 46156  1715 
6 James Wagner   Auburn, WA02:35:36.5 64329  1718 TI CYCLES
7 Robert Dahlgren   Burbank, CA02:41:54.6 53224  1714 PAA
8 William Coffin   Evergreen, CO02:41:58.6 48985  1721 
9 David Powers   San Francisco, CA02:43:24.1 69032  1713 PENINSULA VELO
10 Robert Llamas   Montrose, CA02:47:25.8 162224  1719 PAA MERRILL LYNCH
11 David Mason   Menlo Park, CA02:48:09.8 207674  1729 WEBCOR/ALTO VELO
12 GEORGE NYE   02:50:12.5  1712 
13 ROGER MACOMBER   02:53:46.5  1701 
14 Lothar Grahlmann   Pilot Hill, CA02:56:33.9 182045  1716 MAKO-GALAXY GRANOLA
15 William Leek   Irvine, CA02:56:34.5 108491  1710 VELO CLUB OF MONTEREY
16 Robert Faulhaber   Sunnyvale, CA02:59:41.4 197271  1700 
17 BOB SCOTT   02:59:49.3  1728 
18 Allen Price   Mountain View, CA03:03:18.8 143848  1724 
19 Jim Turner   Menlo Park, CA03:03:42.8 63449  1723 WEBCOR/ALTO VELO
20 STEVE JUNIPER   03:06:54.8  1725 
21 HARRY PANTELAS   03:07:37.9  1704 
22 MERRILL SCHWARTZ   03:08:47.7  1731 
23 GERD ROSENBLATT   03:10:52.5  1703 
24 John Roark   West Hills, CA03:11:19.8 151565  1707 
25 Robert Hess   Manhattan Beach, CA03:15:45.0 16041  1717 
37 ALAN DACHS   03:16:27.8  1633 

Men - Master 1 - MR - 30-39

 Place NameCity, StateTime USAC #BibTeam
1 Christian Walker   Goleta, CA03:09:52.2 50894  234 LABOR POWER
2 Jonathan Boyer   Marina, CA03:11:43.7 192433  212 
3 Clint Gaver   San Jose, CA03:12:16.5 12965  205 TEAM SPINE
4 Dirk Copeland   Santa Clara, CA03:15:31.3 52843  227 
5 Michael Hutchinson   San Jose, CA03:15:33.3 156048  232 TEAM SPINE
6 Brian Laird   Menlo Park, CA03:19:34.1 20154  237 TEAM SPINE
7 PAUL CARTER   03:19:34.6  235 PEGASUS/ALLEGIANT AIR
8 Andres Gil   Stockton, CA03:19:34.6 171882  226 DELTA VELO
9 Gregory Bourque (1 - Pro)   San Diego, CA03:19:35.2 155729  238 TEAM SEASILVER
10 BRETT HONDORP   03:19:37.1  239 
11 Ronald Peterson   Redondo Beach, CA03:20:25.2 60719  216 
12 Robert Newman   Los Gatos, CA03:21:40.0 53327  236 LABOR POWER
13 Richard Thurman   Chico, CA03:23:47.5 35561  202 SOULCRAFT
14 MIKE CUSHIONBURY   03:24:59.7  209 RODALE CYCLING MAGAZINES
15 DAVID COURT   03:29:59.0  208 SIMPLY FIT
16 Michael Hansen   San Marcos, CA03:30:44.3 14994  229 
17 Michael Cooke   Turlock, CA03:33:04.9 167327  207 
18 Scott Francis   Fresno, CA03:33:05.0 59584  217 
19 Aaron Lubell   Santa Cruz, CA03:35:05.5 21726  224 EAST BAY VELO CLUB
20 Joseph Dagostino   San Diego, CA03:36:48.6 50754  200 SPARKLETTS CYCLING TEAM
21 TODD JOHNSON   03:38:27.5  228 JHMR/MARMOT
22 Gino Tenace   Chanhassen, MN03:39:50.1 116243  203 
23 MICHAEL LEE   03:57:45.7  219 TREK/ VW WESTCOAST
24 VAUGHN VAN NOTE   03:58:20.0  241 

Men - Master 1 - MR - 40-49

 Place NameCity, StateTime USAC #BibTeam
1 Ronald Reade   Berkeley, CA02:46:33.0 53377  551 
3 David Worthington   Costa Mesa, CA02:46:46.5 55233  553 LABOR POWER
4 Wayne Stetina   Mission Viejo, CA02:47:24.8 34063  512 US POSTAL SERVICE
5 Lindsay Blount   Santa Barbara, CA02:47:27.7 3989  501 SIMPLY FIT
7 Eric Saltzman   Menlo Park, CA02:47:28.8 46157  528 TEAM SPINE
8 Paul Ecord   Portland, OR02:47:29.2 10444  545 TEAM CLIFFBAR
9 MARTIN WILLOCK   02:47:29.2  559 
10 Mark Fennell   Goleta, CA02:47:29.6 49691  538 SIMPLY FIT / ACTION SPORTS
11 Andrew Holdsworth   San Francisco, CA02:47:31.7 145565  514 THIRSTYBEAR CYCLING
12 Randal Warren   Chicago, IL02:47:49.2 37289  535 XXX RACING-ATHLETICO
13 Mathew Hahn   San Diego, CA02:47:50.2 194473  526 
14 Steven Swartzendruber   Santa Cruz, CA02:47:50.4 132641  511 FASTRACK/BDC
15 Larry Hampson   Marina, CA02:48:21.2 49323  504 EARTHBOUND FARM ORGANIC
16 Stanley Terusaki   Livermore, CA02:48:21.6 35241  546 MORGAN STANLEY/24HOUR FITNESS/SPECIALIZE
17 Philip Woosley   Berkeley, CA02:48:21.7 141019  513 
18 Chris Urban   Kentfield, CA02:48:21.8 171855  502 TEAM SPINE
19 Den Satake   Mill Valley, CA02:48:23.3 56630  517 
20 John Bernstein   Irvine, CA02:48:25.1 188613  532 REAL BICYCLES RACE TEAM
21 Phillip Lovaglio   Hollister, CA02:48:41.2 90122  530 SJBC
22 Paul Gossi   Reno, NV02:48:41.7 13762  515 TEAM EASTY/BICYCLE WAREHOUSE
23 Richard Meeker   Corona Del Mar, CA02:48:42.1 23914  537 
24 Stan Urban   San Rafael, CA02:48:55.1 178098  533 TEAM SPINE
25 Kevin Susco   Palo Alto, CA02:49:42.6 186898  549 WEBCOR/ALTO VELO
27 Robert Pasco   Belmont, CA02:49:57.9 136970  508 REAL BICYCLES
28 Leslie Oglesby   Salinas, CA02:49:58.3 53661  505 EARTH BOUND ORGANIC FARMS
29 Cass Laizure   Oakland, CA02:49:59.8 55004  554 TEAM CLIF BAR
30 Jamie Willin   Redwood City, CA02:50:14.4 38466  541 OLYMPIC CLUB
31 MIKE WRACHER   02:52:48.2  561 
32 Christopher Hipp   Redwood City, CA02:52:49.1 16294  555 LABOR POWER
33 Oswaldo Orozco   San Francisco, CA02:58:14.2 47530  536 SAN JOSE BIKE CLUB
34 CHRIS MAHANNAH   03:02:52.6  552 GS RENO/BIKE WAREHOUSE
35 Roger Bennett   San Carlos, CA03:03:04.2 197734  544 
37 Mike Simpson   Shasta, CA03:06:34.0 81586  507 OWENS HEALTHCARE
38 JERRY RIDGE   03:06:46.6  562 
39 Allen Satterlee   San Jose03:06:56.8 58446  503 SAN JOSE BICYCLE CLUB
40 William Dolphin   Ontario, CA03:07:48.0 50273  524 SOLANO AVE. CYCLERY
41 Tom Minnich   Monterey, CA03:07:48.5 94338  506 EARTHBOUND FARM ORGANIC RACE TEAM
42 John Riley   Cross Plains, WI03:08:31.8 29899  542 TREK
43 Stephen Washburn   Port Hueneme, CA03:17:08.2 101657  543 UPS
44 JIM GENTES   03:28:58.5  560 RED EDGE

Men - Master 2 - MR - 30-39

 Place NameCity, StateTime USAC #BibTeam
1 Patrick Ruggles   Benicia , CA02:19:27.1 90165  1330 VELTEC SPORTS
2 Jon Ardell   San Rafael, CA02:19:34.9 43606  1318 
4 Bradley Galindo   Pasadena, CA02:19:36.2 157692  1294 PAA/MERRILL LYNCH
6 Steven Hill   Berkeley, CA02:19:36.5 199411  1320 ALTO VELO
7 Lawrence Niday   Goleta, CA02:19:42.7 86446  1311 SIMPLY FIT
8 Matt Kramer   Los Gatos, CA02:19:44.8 183871  1297 ARMADILLO WILLIES
9 Scott Palmer   Calabasas, CA02:19:53.3 195592  1285 AMGEN
10 HUMBERTO FARIA   02:19:55.2  1210 TEAM YAKIMA
11 Ken House   Eureka, CA02:20:03.6 155922  1206 
12 JEROD KATRI   02:20:03.7  1224 REVOLUTION BIKES
13 Brian Sevall   Soledad, CA02:20:14.7 201172  1234 
14 Doug Urbach   West Lake Village, CA02:20:34.8 36238  1236 AMGEN CYCLING
15 Paul Whiting   San Anselmo, CA02:20:35.0 206093  1267 TEAMCITY
16 DAVID PORTER   02:20:36.3  1244 
17 William Reuss   Redding, CA02:20:36.7 204939  1223 OWENS HEALTHCARE
18 Kam Zardouzian   Solana Beach, CA02:20:53.3 188451  1301 RACEPLAN
19 Robert Britt   Larkspur, CA02:20:53.8 116501  1291 CRC/TRAVELOCITY
20 Marc Lundgren   San Clemente, CA02:20:54.3 21841  1220 
21 AHMET GOKCEK   02:21:02.6  1273 
22 Jerry Cherra   Duluth, MN02:21:08.6 149677  1292 ALTO VELO
23 Scott Lillie   Billings, MT02:21:17.2 200491  1308 YELLOWSTONE CYCLING CLUB
24 Angelo Calub   Folsom, CA02:21:32.7 169838  1329 BICYCLES PLUS/SIERRA NEVADA
25 Andrew Zoldak   San Jose, CA02:21:44.7 43365  1332 
26 Sean Berro   Santa Monica, CA02:21:52.8 98201  1237 AMGEN CYCLING
27 TOM PHILLIPS   02:22:12.0  1219 REVOLUTION BIKES
28 Michael Holt   Morgan Hill, CA02:22:16.6 75334  1266 WOLFPAK RACING
29 Craig Pack   Altus, OK02:22:34.6 199078  1258 
30 Greg Juneau   Kenmore, WA02:23:14.6 155436  1326 LGBRC
31 Scott Virtue   Albuquerque, NM02:23:34.6 205395  1319 TEAM OCHSNER
32 Geoffrey Gunderson   Oakland, CA02:23:50.2 195842  1208 CYCLESPORTS/ MOOSEHEAD
33 Richart Harper   Davis, CA02:24:44.8 198885  1241 BOLLO RACING
34 TONATIUH TREJO   02:26:46.7  1283 
35 Derrick Gray   San Carlos, CA02:27:04.5 158158  1315 PENINSULA VELO CYCLING CLUB
36 James Herzman   Truckee, CA02:27:17.7 207922  1279 RENO WHEELMAN/RENO HILTON
37 Steven Bates   San Diego, CA02:27:35.8 90063  1250 TREK/VW
38 Brian Smith   Walnut Creek, CA02:27:55.2 129534  1245 
39 Sean Smith   Oakland, CA02:28:01.5 204018  1276 
40 Thomas Carpenter   Oakland, CA02:28:10.2 169740  1211 
41 John Friesen   Redding, CA02:28:11.2 204885  1218 OWENS HEALTHCARE
42 Harry Ault   San Francisco, CA02:28:11.7 200906  1310 
43 PHILLIP KEMPER   02:29:25.0  1321 
44 Arik Florimonte   San Jose, CA02:29:25.1 204263  1298 SAN JOSE BICYCLE CLUB
45 DAVID NADER   02:29:31.6  1246 
46 Eduardo Bendana   San Francisco02:29:55.2 198517  1205 CALIFORNIA ROAD CLUB
47 MARK TRUJILLO   02:30:05.9  1248 
48 Cliff Verity   Huntington Beach, CA02:30:44.6 36614  1290 TEAM VELOSPORT
49 Ian Duffy   Oakland, CA02:30:44.7 10121  1324 
50 Chad Smith   Huntington Beach, CA02:30:47.5 195619  1284 COATES CYCLERY
51 Gary Vasconi   Oakland, CA02:30:59.5 197278  1269 OAKLAND ROAD CLUB
52 Tim Petersen   Alamo02:31:26.0 204058  1232 
53 DENIS J STROUP   02:31:26.2  1272 
54 JOHN STEINBERGER   02:31:34.5  1268 
55 ERICH MALVRE   02:32:04.4  1289 CYCLE SPORTS MOOSEHEAD
56 Nathan Cassell   Denver, CO02:32:08.2 196326  1256 
57 WILL BEAUBIEN   02:32:10.2  1262 
58 Todd Dodds   Redding, CA02:32:12.5 204936  1222 OWENS HEALHCARE
59 FRANCIS CEBEDO   02:33:21.2  1302 ROADBIKEREVIEW.COM
60 Murray Swanson   Woodside, CA02:33:56.0 206144  1323 PENINSULA VELO
61 STEVEN MCARDLE   02:34:28.8  1304 
62 Joseph Winslow   Menlo Park, CA02:34:39.3 195280  1217 
63 Dennis Ramirez   Clovis, CA02:34:53.5 204890  1305 
64 Thomas Sorbera   Lodi, CA02:35:03.5 203517  1251 DELTA VELO
65 Luca Lodolo   Sunnyvale, CA02:35:05.8 207791  1309 WEBCOR ALTO VELO
66 CHRISTOPHER COBLE   02:35:15.7  1264 
67 STEVE JUDY   02:35:32.4  1263 
68 Gildardo Obregon   Altadena, CA02:36:15.1 198427  1260 SC VELO
69 OLIVER CARBONELL   02:37:15.8  1300 ROADBIKEREVIEW.COM
70 Joseph Zambrano   Pasadena, CA02:37:50.8 39386  1226 SC VELO
71 Mark Rozzano   San Francisco, CA02:37:51.0 207098  1255 
72 Robert White   Morgan Hill, CA02:38:16.8 97873  1265 
73 Stefan Riezler   Pittsburgh, PA02:39:25.3 195739  1303 Webcor/Alto Velo
74 CHARLIE COOPER   02:41:11.9  1231 WHITEPAW RACING 7B
75 JOSE PADILLA   02:41:46.8  1282 
76 TODD MCINTYRE   02:42:17.5  1209 DAVIS BIKE CLUB
77 Michael Smith   Woodland Hills, CA02:42:32.3 182379  1212 
78 BRETT HALL   02:43:02.4  1277 FASTRACK/BDC
79 Chris Pearson   Santa Cruz, CA02:43:50.5 204867  1242 LGBRC
80 Brad Ellis   Fredericksburg02:44:27.2 211443  1331 
81 Joe Phillips   Piedmont, CA02:45:10.0 203959  1328 CLIF BAR
82 Alex Wheeler   San Jose, CA02:48:12.9 115171  1214 SANTA CRUZ SPOKESMAN
83 Paul Lennon   Redding, CA02:52:01.0 20897  1221 OWENS HEALTHCARE
84 DAVID ENGELBRECHT   02:52:18.7  1271 
85 JAMES DOZIER   02:54:57.6  1307 
86 Alex Mercier   Davis, CA02:55:03.3 201987  1252 
87 KEII JOHNSTON   02:55:40.2  1325 
88 MICHAEL WARNER   02:56:08.1  1281 NORCAL VELO
89 Robert Blue   Woodland Hills, CA02:56:20.0 110183  1261 AMGEN
90 Joseph Puskarich   Irvine, CA02:58:55.2 144918  1200 TEAM VELOSPORT
91 Michael Leon   Los Altos, CA02:59:48.0 205728  1286 TEAM SHEEPER
92 Aaron Feldman   Berkeley, CA02:59:48.6 46384  1280 
93 John Guca   Mokena, IL03:00:39.4 193285  1249 
94 Michael Novitch   Los Angeles, CA03:00:54.6 54931  1293 VELOWORX RACING
95 John Chavez   Carson City, NV03:00:56.5 205127  1240 
96 STEVEN WESTBERG   03:03:27.3  1229 
97 Kristopher Spyrka   Alamo, CA03:09:07.3 207144  1316 I3/WOT

Men - Master 2 - MR - 40-49

 Place NameCity, StateTime USAC #BibTeam
1 Tony Reid   Sacramento, CA02:22:47.6 29458  1457 ALTA ALPINA CYCLING TEAM
2 Greg Fenton   Ramona, CA02:22:48.2 11447  1452 BIKE EMPIRE AMCC
3 Ron Takeda   Santa Barbara, CA02:22:49.6 34927  1413 FASTRACK/BDC
4 David Christenberry   San Jose, CA02:22:51.4 180313  1465 WEBCOR/ALTO VELO
5 TONY HERDRICH   02:22:52.1  1531 SPECIALIZED
6 Karl Ehlert   Redwood City, CA02:22:53.6 10559  1449 
8 Steve Boelter   Goleta, CA02:23:03.0 177625  1410 FASTRACK/BDC
9 George Smith   Menlo Park, CA02:23:04.3 168005  1484 WEBCOR/ALTO VELO
10 Barney Berglund   Santa Barbara, CA02:23:04.8 203811  1428 FASTRACK/BDC
11 JAY STARR   02:23:11.2  1440 
12 Kevin Willitts   S Lake Tahoe, CA02:23:23.7 192774  1420 
13 Edward (Ted) Thomas   Mill Valley, CA02:23:23.8 196125  1439 
14 Daniel Schalk   Oconomowoc, WI02:23:30.8 205347  1502 
15 Sheldon Smith   Templeton, CA02:23:39.1 211210  1509 
16 Thomas Feix   Moss Beach, CA02:23:40.7 11403  1504 PEN VELO/KONDRA
17 Mark Luke   Goleta, CA02:23:55.1 131303  1419 
18 Chris Marsh   Moorpark, CA02:24:02.2 22585  1426 AMGEN CYCLING
19 James Williams   Murrieta, CA02:24:02.3 38352  1463 BACK ALLEY
20 Chris Cerruti   Watsonville, CA02:24:02.5 198811  1461 CAL GIANT CYCLING
21 Michael Vella   Saratoga, CA02:24:22.1 167402  1524 WEBCOR / ALTO VELO
22 Bob Rosemeyer   Carlsbad, CA02:24:23.7 195211  1507 
23 Chris Barre   San Diego, CA02:24:27.2 179279  1444 UNATTACHED
24 KEITH HNATIUK   02:24:45.5  1532 SPECIALIZED
25 Mark Johnson   Los Gatos, CA02:24:48.8 195404  1435 
26 TOMMY PHAM   02:24:51.6  1530 SPECIALIZED
27 Boris Rozenberg   Daly City, CA02:25:00.7 190311  1516 
28 WILLIAM LONG   02:25:16.0  1482 
29 Ken Doyle   Santa Barbara, CA02:25:23.3 9958  1408 FASTRACK/BDC
30 John Luke   Simi Valley, CA02:25:41.7 21803  1430 AMGEN CYCLING
31 Thomas Berger   Palo Alto, CA02:25:44.0 163390  1489 
32 John Novitsky   Woodside, CA02:25:45.0 102274  1519 
33 Kyle Samuels   Watsonville, CA02:25:48.7 148531  1468 
34 Mark Azevedo   Twain Harte, CA02:27:43.2 57657  1415 DELTA VELO
35 RON RICHARDSON   02:28:26.9  1432 
36 Scott Calley   Monterey, CA02:28:48.6 195999  1441 
37 Thomas Anhalt   Goleta, CA02:29:24.7 203502  1418 FASTRACK/BDC
38 Randy Liechty   San Diego, CA02:29:43.0 89462  1521 EXCEL SPORTS
39 Lee Carter   Santa Barbara, CA02:29:44.2 6335  1411 FASTRACK/BDC
40 Chris Hanke   Morrisville, NC02:30:09.3 205647  1470 
41 SCOTT DATTALO   02:30:19.5  1445 ALTO VELO
42 Matthew Sundt   Monterey, CA02:31:09.7 184752  1431 VELO CLUB MONTEREY
43 SCOTT KELLY   02:31:27.2  1523 
44 Alex Fairly   Amarillo, TX02:32:07.1 128955  1511 HILLS SPORT SHOP
45 Carl Beehler   Summerland, CA02:32:07.1 188054  1427 SOUTHERN CALIFORNIA CYCLING CLUB
46 James Fox   New York, NY02:32:07.4 170425  1456 
47 Alex Blease   San Jose, CA02:32:18.7 155963  1447 
48 brian smith   Coronado, CA02:32:33.0 204521  1472 
49 CHRIS SCHEETZ   02:32:56.7  1517 
50 Randall Scott   Gold River, CA02:33:05.9 189624  1490 BP SIERRA NEVADA
51 STANFEL LARRY   02:33:09.7  1534 
52 JOHN DEBACKER   02:33:31.0  1528 
53 R Patrick Goebel   Stanford, CA02:33:37.8 140848  1434 
54 Alan Gould   Santa Barbara, CA02:33:38.2 201106  1400 FASTRACK/BDC
55 KEVIN FETTERMAN   02:33:44.5  1424 
56 James Hinchliffe   Danville, CA02:33:49.7 103651  1475 VILLAGE VELO
57 Mark Holthouse   Camino, CA02:34:26.8 202976  1450 SACRAMENTO GOLDEN WHEELMEN/CITY BICYCLE
58 Lance Newey   Fair Oaks, CA02:34:35.2 202161  1525 BICYCLES PLUS/SIERRA NEVADA/NORTH RIM
59 Jeff Hane   Sunnyvale, CA02:35:05.2 14909  1526 SAN JOSE BICYCLE CLUB
60 RANDY FLOYD   02:37:27.9  1405 
61 ROBERT HYLLE   02:39:12.3  1514 VELO CLUB MONTEREY
62 Chris Belec   Pleasant Hill, CA02:39:22.5 187401  1464 
63 FRANK WALDEN   02:39:33.3  1533 TEAM WRONG WAY/FOX RACING SHOX
64 Paul Borean   Hathaway Pines, CA02:40:37.2 178369  1469 
65 LEONEL QUINTEROS   02:40:40.1  1446 SQUADRAOVEST
66 Anthony Kahn   Arcata, CA02:41:18.2 143262  1481 REVOLUTION CYCLES
67 Mark Peters   Phoenix, AZ02:41:27.0 206159  1493 
68 Matt Conidaris   Gold River, CA02:41:28.7 195944  1455 BODY CONCEPTS -- PEAK CYCLING
69 JAMES GREENLEE   02:41:53.0  1501 PENINSULA VELO
70 JOHN WRIGHT   02:42:02.0  1460 TWO MOES RACING
71 Franz Broz   Pebble Beach, CA02:42:07.1 155801  1442 EARTH BOUND FARMS
72 H. MELTZER   02:43:29.8  1476 
73 RUBEN VILLARREAL   02:43:34.5  1483 VELO PRO
75 Brian Smith   Jackson, WY02:45:19.6 180687  1479 SNAKE RIVER BREWING
76 Kevin Young   Vallejo, CA02:45:22.3 196228  1492 HYPERCAT RACING
77 CHUCK THOMPSON   02:46:15.8  1500 
78 Todd Ryska   San Antonio, TX02:49:41.3 198098  1503 
79 Michael Heenan   Rancho Cucamonga, CA02:50:08.7 196107  1522 SC VELO
80 Craig Stewart   Orinda, CA02:50:13.2 205201  1506 BERKELEY BICYCLE CLUB
81 Stephen Harris   San Francisco, CA02:50:19.0 205958  1473 SQUADRA OVEST
82 WILLIAM DUNHAM   02:51:31.5  1436 
83 Richard Babbe   Frisco, TX02:53:58.2 72266  1406 MET-RX ALLIANCE CYCLING
84 David Clay   Livermore, CA02:54:37.0 195208  1416 
85 Jeffrey Davis   Coronado, CA02:54:56.2 205786  1451 
86 Karl Schindler   Tucson, AZ02:55:34.9 100996  1498 
87 RAFAEL CRUZ   02:55:55.0  1453 
88 Jim Hunton   San Jose, CA02:56:07.9 204853  1467 
89 Christopher Nordby   San Jose, CA02:57:11.3 204488  1496 
90 FRANK OBRIEN   02:58:34.7  1485 
91 John Goodman   Santa Barbara, CA02:59:17.9 203221  1407 FASTRACK/BDC
92 BILL GRIFFITH   02:59:25.0  1425 
93 JEFF GRIFFO   02:59:56.4  1499 
94 Peter Van Slyke   Vallejo, CA03:01:03.1 207588  1510 
95 Steven LeClair   Moraga, CA03:01:03.8 195281  1421 MAKO GALAXY GRANOLA RACE TEAM
96 MARK ROSEN   03:05:52.3  1529 ROSEN REALTY RACING TEAM
97 CHUCK CAWLEY   03:07:06.1  1459 
98 Marvin Zauderer   San Rafael, CA03:12:15.0 175058  1429 MAKO/GALAXY GRANOLA
99 TOM LECLERC   03:14:49.5  1478 FUZE CREATIVE
100 CRAIG GITTELMAN   03:20:56.7  1437 

Men - U23 - 1-23

 Place NameCity, StateTime USAC #BibTeam
1 Soloman Woras   03:11:15.2 201043  410 TEAM RUBICON
2 John Hygelund   Los Gatos, CA03:11:15.4 132315  421 SIERRA NEVADA CYCLING
3 Matthew Gilbert   Laguna Beach, CA03:11:15.7 208804  424 TEAM MONEX
4 KYLE GRITTERS   03:12:24.7  426 TEAM MONEX
5 David Washburn   Sacramento, CA03:19:36.4 178982  420 SIERRA NEVADA CYCLING
6 Emmanuel Suarez   Glendale, CA03:19:37.7 181284  415 
7 Mike Hoffman   Berkeley, CA03:22:11.5 191571  422 RITCHEY
8 JOSE ESTEVEZ   03:22:55.2  413 MAJOR MOTION
9 Mikkel Bossen   Portland, OR03:27:14.8 183668  400 
10 Owen Gue   Missoula, MT03:32:30.5 164271  404 TEAM HAMMER GEL
11 Dain Zaffke   San Anselmo, CA03:33:29.8 172117  411 EASTSIDE CYCLES/MARIN
12 Evan Anderson   Grass Valley, CA03:34:50.0 140620  418 

Men - Cat 2

 Place NameCity, StateTime USAC #BibTeam
1 Kyle Barbary   Berkeley, CA03:12:46.2 167835  40 
2 Bruce Muhlfeld   Calabasas, CA03:13:15.2 68445  14 TREK/VW JAX
4 DAVE REID   03:14:03.7  50 
5 Ryan Ramos   Berkeley, CA03:14:04.0 139348  33 
6 Richard Pego   Los Angeles, CA03:14:04.5 41144  LGBRC
7 Gen Kogure   Asheville, NC03:14:04.7 52491  13 
8 Paul Reichardt   Castro Valley, CA03:14:07.5 178307  46 
9 Jon Erskine   Soquel, CA03:14:29.6 10942  38 LOS GATOS BIKE RACE CLUB
10 SHAWN OLIVER   03:14:49.2  49 
11 Brian Bosch   Fresno, CA03:14:50.7 40703  26 
12 Daniel Vinson   Lake Elsinore, CA03:14:50.8 193022  19 SC VELO
13 Dan Distefano   Tucson, AZ03:14:51.7 89997  
14 Evan Lawrence   Ham Lake , MN03:15:00.8 172535  27 TEAM HAMMER GEL
15 Tim Brackett   Roseville, CA03:15:29.1 180122  11 TEAM SPINE
16 Michael Tymoff   San Francisco, CA03:15:36.8 207589  23 
17 John Benson   Flagstaff, AZ03:15:42.1 98924  35 FLAG VELO
18 Wayne Puckett   San Francisco, CA03:16:02.7 89367  18 TEAM SPINE
19 Joseph Karbowski   Sunnyvale, CA03:16:28.3 90847  24 DAVIS BIKE CLUB
20 Michael Buckley   Reno, NV03:16:39.7 186698  ROCKNASIUM/CBE
21 Ari DeWilde   Baltimore, MD03:17:30.7 91790  39 
22 Jeffrey Dickey   Arlington, VA03:17:30.8 9439  41 RENO WHEELMEN
23 John Hanson   Saunderstown, RI03:22:44.7 172966  22 ESSEX COUNTY VELO
24 Brian Heneghan   San Jose, CA03:23:20.0 63508  LOS GATOS BICYCLE RACING TEAM
25 Mark Shimahara   Ventura, CA03:23:57.9 32481  BIKEZEN.COM
26 John Fowlkes   Mountain View, CA03:26:20.5 69571  37 
27 Steven Mannebach   Salt Lake City, UT03:30:53.7 117525  UNATTACHED
28 William Longstreth   Tiburon, CA03:34:47.0 110206  47 OLYMPIC CLUB
29 KALEN GRUBER   03:43:41.0  48 
30 Jonathan Sinclair   Hollister, CA03:47:28.3 113194  29 LOS GATOS BICYCLE RACING CLUB
31 Matthew Novakovich   Anchorage, AK03:47:28.3 209589  34 HAMMER GEL
32 Graham Simpson   Carmel Valley, CA03:48:03.7 65800  43 CLUB ONE/P. MAX

Men - Cat 3

 Place NameCity, StateTime USAC #BibTeam
1 Jonathan Eropkin   Fresno, CA02:44:40.2 197844  729 CENTRAL VALLEY CYCLING
2 John Staroba   Santa Rosa, CA02:44:43.7 195591  748 EASTSIDE CYCLES / MARIN
3 Michael Telega   Los Angeles, CA02:45:07.0 162569  750 VILLAGE PEDDLER/BUY-CELL.COM
5 Jason Williams   Chico, CA02:45:08.1 190700  704 TEAM SPINE
6 Scott Frake   Cupertino, CA02:45:08.2 187388  715 SAN JOSE BICYCLE CLUB
7 Dominic Giampaolo   Lewiston, ME02:45:08.3 196229  778 
8 AARON ODELL   02:45:08.6  773 VILLAGE PEDDLER / BUY-CELL.COM
9 JOSHUA SNEAD   02:45:16.3  775 VILLAGE PEDDLER
10 Brian Rutherford   Oakland, CA02:45:16.3 140758  735 RHVILLLA.COM
11 MARTIN WILLOCK   02:45:43.4  771 
12 John Knotts   Bend, OR02:45:45.5 65194  764 LOS GATOS BICYCLE RACING CLUB
13 Patrick Rocchi   Marina, CA02:46:02.5 145588  742 NORCAL VELO
14 Gary Gellin   Menlo Park, CA02:46:02.7 13028  757 WEBCOR/ALTO VELO
15 PETER SCHILLING   02:46:03.4  746 
16 Mike Sharkey   Steamboat Springs, CO02:46:16.2 151548  758 WORLD CUP SKI AND CYCLE
17 Skye Kraft   San Francisco, CA02:46:17.9 98645  751 EASTSIDE CYCLES / MARIN
19 Jason Montano   Oakland, CA02:46:18.2 180565  727 
20 Jason Clymer   Novato, CA02:46:20.6 95542  721 SOULCRAFT
21 Brian Mulroe   Mountain View, CA02:46:31.7 195684  700 LEMATIN
22 Patrick Watson   Thousand Oaks, CA02:46:32.1 158915  744 VELOWORX RACING
23 Jeffry Smith   Draper, UT02:46:32.1 157726  713 STARBUCKS DOUBLESHOT
24 Joshua Gilbert   Visalia, CA02:46:32.3 198813  745 
25 Ty Kady   Placentia, CA02:46:38.0 191004  731 JAX BICYCLE CENTER/WENZEL COACHING
26 Santiago Bolon   San Jose, CA02:46:59.7 195384  736 
27 Matt Morenzoni   Sunnyvale, CA02:47:19.2 124882  708 DAVIS BIKE CLUB
28 Chris Swain   Emeryville, CA02:47:24.3 196751  725 
29 Brian Usher   Queensbury Ny02:47:26.4 133522  737 RACERS OF ADIRONDACK REGION
30 MATTHEW THEISEN   02:47:29.2  772 RH VILLA.COM
31 Matthew Karre   Portland, OR02:47:37.0 182287  718 TEAM ACTIVE
32 Erik Bergstrom   Bend, OR02:47:40.1 207789  776 SANTA CRUZ SPOKESMEN
33 Mark Gagner   San Jose, CA02:48:11.8 169733  702 
34 Gerard Prosnier   Scottsdale, AZ02:48:17.4 142188  724 PROCON CYCLING
35 ANTHONY LEAL   02:49:35.2  770 SOULCRAFT.COM
36 John Lorenz   San Francisco, CA02:50:44.6 155043  755 
37 Erick Le   South San Francisco, CA02:51:41.8 140575  701 LE MATIN
38 Antonio Tunzi   San Francisco, CA02:53:15.9 196225  717 THIRSTYBEAR CYCLING
39 Robert Evans   Scotts Valley, CA02:54:09.0 72893  759 VILLAGE PEDDLER PRESENTED BY BUY-CELL.CO
40 PETER WOOD   02:55:54.2  722 THIRSTY BEAR RACING
42 Greg Bloom   Hollister, CA02:57:04.7 3982  752 
43 ROBERT KEATING   02:59:40.8  734 
44 James Connell   Oakland, CA03:00:04.3 172578  707 
45 Dain Zaffke   San Anselmo, CA03:00:47.7 172117  749 EASTSIDE CYCLES/MARIN
46 MICHAEL ROCHLIN   03:06:59.8  754 EASTSIDE CYCLES/MARIN
47 Kevin Knox   Altadena, CA03:11:06.2 171528  720 AMGEN CYCLING
48 Christian Kearney   Oakland, CA03:13:56.9 197820  726 VILLAGE PEDDLER
49 Gino Tenace   Chanhassen, MN03:24:29.7 116243  712 

Men - Cat 4

 Place NameCity, StateTime USAC #BibTeam
1 Jesse Thomas   Mountain View, CA02:46:14.7 206462  975 
2 Luca Ortolani   San Francisco, CA02:46:40.0 207747  941 ALTO VELO
3 Rupert Brauch   San Jose, CA02:46:43.0 195435  933 WEBCOR/ALTOVELO
4 Jesse Bastide   Falmouth, ME02:47:29.1 73946  953 
5 Laurent Recollon   San Anselmo, CA02:47:30.7 105185  982 CALIFORNIA ROAD CLUB
6 Tomas Roba   Broomfield, CO02:47:39.4 206552  974 MET-RX ALLIANCE
7 Spencer Ericksen   Sparks, NV02:47:40.2 198291  920 RENO WHEELMEN
8 Chris Kitchen   Venice, CA02:47:41.6 204740  971 DAVIS BIKE CLUB
9 Richard Carson   Fairfax, CA02:47:42.1 168597  973 VILLAGE PEDDLER
10 Dan Tedford   Mountain View, CA02:47:42.1 196695  907 
11 Phil Slama   Seattle, WA02:47:44.8 204099  924 ARETE RACING
12 Christopher Jones   Redondo Beach, CA02:48:09.6 205317  978 BIG ORANGE RACING
13 Ronnie Kier   Fresno, CA02:48:35.3 168115  965 CENTRAL VALLEY CYCLING
14 Reno Garcia   Palo Alto, CA02:48:57.4 201502  981 TEAM SWIFT
15 James Rusk   Berkeley, CA02:49:12.1 197430  913 BERKELEY BIKE CLUB
16 Justin Piccorelli   Berea, OH02:49:13.0 198292  966 VELOWORX RACING
17 Mark Herynk   Redwood City, CA02:49:24.5 157123  947 
18 Sean Campbell   Oakland, CA02:51:27.0 198622  910 
19 Timothy Jones   Ontario, CA02:51:35.6 169996  979 AFP / VELO SPORT
21 Sterling Forrester   Clearwater, FL02:52:41.3 198703  968 REDDING VELO
22 Karl Nielsen   Isla Vista, CA02:55:08.2 146391  935 UCSB CYCLING
23 Clark Scheffy   Cambridge, MA02:55:30.8 197002  901 CYCLESPORTS OAKLAND
24 McKinley Thompson   San Anselmo, CA02:56:05.2 80642  969 
25 Damion Hickman   San Juan, CA02:57:24.1 16094  980 TEAM VELOSPORT
26 Benjamin Sullivan   Missoula, MT02:58:16.0 178006  938 MONTANA VELO
27 Christopher Judy   Salt Lake City, UT02:59:23.5 130995  925 JADECYCLES.COM
28 Ronald Lauber   Philadelphia, PA03:01:34.3 63986  954 LOS GATOS CYCLING TEAM
29 Jeremiah Peiffer   03:01:41.7 185949  929 
30 Mack Chew   San Francisco, CA03:01:41.8 170147  908 
31 Chin Chao   San Anselmo, CA03:02:10.3 119886  945 
32 Edward Leon   San Anselmo, CA03:04:51.7 207154  960 
33 John Hancock   Sacramento, CA03:05:30.8 195844  944 
34 Robert MacNeill   San Carlos, CA03:05:34.1 199599  946 WEBCOR/ALTO VELO
35 Sean Motta   Redwood City, CA03:05:42.2 201785  950 
36 Jason Brayley   Auburn, WA03:07:15.5 121460  939 CELO PACIFIC
37 Damian Stein   San Rafael, CA03:07:56.3 33962  917 
38 JASON ALLEN   03:10:05.2  952 UNATTACHED
39 Chad MacDonald   Pleasant Hill, CA03:11:48.2 170454  922 SAN DIEGO STATE UNIVERSITY/RANCHOS
40 Ryan MacDonald   Martinez, CA03:11:48.2 160274  931 SAN DIEGO STATE UNIVERSITY/ RANCHOS CYCL
41 Holden Hardcastle   San Francisco, CA03:15:15.3 204650  904 
42 Aaron Vlasak   Philadelphia, PA03:15:22.2 156482  936 
43 James Keiser   San Diego, CA03:18:57.3 195294  943 
44 Kevin Moore   Mountain View, CA03:18:57.7 200279  903 WEBCOR/ALTO VELO
45 Rob Love   Watsonville, CA03:19:36.6 197339  923 
46 Christopher Barker   Rancho Cordova, CA03:19:37.0 196545  911 
47 Travis Hockersmith   Danville , CA03:20:12.2 204475  921 
48 Barrett Ausman   San Jose, CA03:21:33.6 186327  928 
49 Michael Buell   San Francisco, CA03:22:33.1 198510  964 CRC/ TRAVELOCITY - HILL-CO
50 Jeffrey Wu   San Francisco, CA03:22:37.6 167914  918 DAVIS BIKE CLUB

Men - Cat 5

 Place NameCity, StateTime USAC #BibTeam
1 RUSSELL TALBOT   02:23:20.2  1856 
2 Donald Fornes   San Francisco, CA02:23:21.0 200281  1820 
3 MICAH MOZAL   02:23:53.2  1827 
4 Mark Faulkner   Pacific Grove, CA02:23:53.5 190171  1808 
5 Wyatt Weisel   Menlo Park, CA02:23:59.1 208676  1883 
6 Coleman Ruiz   Pacific Grove, CA02:23:59.3 201711  1837 
7 Shane Franco   Fairfax, CA02:23:59.3 144254  1892 TEAM TAM
8 Daniel Chudleigh   Park City, UT02:24:00.5 175196  1855 
9 Krage Olrich   San Rafael, CA02:24:15.3 26691  1893 NORCAL VELO
10 Nathan Collins   Albany, CA02:24:15.5 204792  1870 
11 John Madden   Mountain View, CA02:24:15.7 210146  1881 
12 Aaron Paterson   Sunnyvale, CA02:24:16.2 209976  1877 UCSB
13 Douglas McKenzie   Santa Rosa, CA02:24:16.8 201588  1853 REDWOOD EMPIRE VELO
14 Scott Bowen   Santa Rosa, CA02:24:17.2 168442  1842 
15 Lee Bird   La Canada, CA02:24:33.1 195795  1841 PAA/MERRILL LYNCH
16 Jon Grant   Pleasant Hill, CA02:24:33.5 205662  1865 FORWARD MOTION SPORTS
17 Jared Ives   Santa Rosa, CA02:24:34.7 207956  1868 REDWOOD EMPIRE VELO
18 Raymond Cogan   San Francisco, CA02:24:35.2 201255  1815 SQUADRA OVEST
19 Gregory Degouveia   Chico, CA02:24:37.0 209685  1891 
20 JASON FITZGIBBON   02:24:45.6  1835 
21 WILLIAM WARNER   02:24:47.2  1854 
22 BERNIE MURPHY   02:24:56.1  1887 
23 Ben Shank   Capitola, CA02:25:04.5 209168  1843 FAMILY CYCLING CENTER
24 Cullen Wojcik   Knoxville, TN02:25:41.7 205491  1847 SQUADRA OVEST
25 Scott Varner   Oakland, CA02:25:53.1 200034  1821 BERKELEY BIKE CLUB
26 DAVID ALVAREZ   02:26:36.7  1886 BROADMARK
27 EDWARD WILBUR   02:26:37.3  1838 
28 Kevin Herlihy   Goleta, CA02:27:31.7 205487  1833 
29 COREY HENDERSON   02:27:50.2  1844 
30 ERIC DAVIS   02:29:15.3  1899 
31 RICHARD NIELSEN   02:29:56.2  1830 
32 Chris Dittmore   Danville, CA02:30:07.8 189620  1816 TEAM PRECEPT
33 SEAN LUNNY   02:30:54.0  1851 
34 Robert Baesman   San Carlos, CA02:31:08.9 204646  1839 
35 ERIC STEINBACH   02:31:30.6  1896 SAN DIEGO BIKER.COM
36 JAMES LIPE   02:31:49.1  1901 BOYER SPORTS
37 Toby Schmidt   Salt Lake City, UT02:33:54.4 195148  1858 
38 Scott Daniel   Visalia, CA02:34:21.2 207139  1882 
39 John Hubbard   Tucson, AZ02:34:25.5 155536  1879 TUCSON BICYCLES
40 Brett Stevens   Cottonwood Heights, UT02:34:27.1 205633  1813 PORCUPINE PUB / CONTENDER BICYCLES
41 MATT SWINNERTON   02:35:04.6  1825 TEAM PRECEPT
43 KENNETH MOZEK   02:37:19.6  1819 TEAM PRECEPT
44 TOM SHEPPARD   02:37:26.7  1861 
45 Ernie Perreira   Sebastopol, CA02:37:53.7 27775  1806 REDWOOD EMPIRE VELO
46 JEFF TOTTEN   02:38:35.8  1885 
47 Dana Farmer   Gold River, CA02:40:08.6 150815  1800 SAN JOSE BIKE CLUB
48 JOHN HANSEN   02:40:12.2  1900 
49 Gregory Bennett   San Francisco, CA02:40:14.0 205105  1871 BERKELEY BICYCLE CLUB
50 ISAAC FACUNDO   02:40:50.5  1840 CITRUS VALLEY VELO
51 Patrick Hamilton   Reno, NV02:40:59.1 121323  1869 
52 John Marshall   Reno, NV02:42:10.9 207775  1836 
53 Jeff Bermant   Santa Barbara, CA02:42:40.7 200932  1876 BDC FASTRACK
54 JOHN HANSEN   02:42:57.8  1818 TEAM PRECEPT
55 Zachary Dylong   Woodland, CA02:43:04.1 207991  1845 B&L BIKE SHOP
56 Joshua Parman   Los Altos, CA02:43:56.7 204839  1895 
57 Erim Taser   Lodi, CA02:44:30.2 205116  1850 
58 JOHN BRANIN   02:44:46.2  1905 
59 WILLIAM GEURTS   02:45:57.2  1907 
60 DON TERRES   02:46:33.4  1873 
61 Scott Kemball-Cook   Centennial, CO02:47:54.1 195814  1824 LAKEWOOD RACING TEAM
62 DANIEL WORRELL   02:48:11.1  1863 SPIN CITY BIKES
63 Carl Flanagan   Tampa, FL02:48:28.5 178019  1860 SOCALCYCLING.COM
64 JOEY FIGONE   02:48:41.1  1903 
65 JOHN SWANSTROM   02:49:02.8  1878 
66 AMEN TURCIOS   02:49:36.8  1807 
67 Plaridel Atil   Santa Rosa, CA02:49:41.8 203828  1864 CITRUS VALLEY VELO
68 Jun Aishima   Menlo Park, CA02:51:27.2 206581  1897 LGBRC
69 KEVIN BACUYANI   02:54:59.1  1805 PACIFIC PHYSICAL THERAPY
70 Brian Carlson   Visalia, CA02:57:03.5 93057  1894 
71 STEVE MILLION   02:57:40.1  1866 AWM
72 BRUCE KAISER   02:57:58.6  1880 SGW/CITY BIKE WORKS
73 MICHAEL FARGHER   02:59:31.0  1890 
74 Darren Chamberlain   Salinas, CA03:00:11.7 204682  1812 
75 PAUL YLLANA   03:00:57.4  1829 
76 WALTER FORD   03:02:05.7  1888 SACRAMENTO BARIATRIC
77 BUTCH FRANCISCO   03:03:36.1  1906 
78 Ralph Hipps   San Jose, CA03:07:15.0 193087  1809 ALTO VELO

Women - Junior - JR - 15-16

 Place NameCity, StateTime USAC #BibTeam
1 TAYLOR BOGLIOLI   01:41:42.6  2451 GREGGS/TREK
2 DAWN TISDELL   01:42:37.3  2457 
3 Kimberly LaFleur   Discovery Bay, CA01:43:45.6 195496  2455 TEAM SWIFT
4 Kelly LaFleur   Discovery Bay, CA01:43:45.7 196265  2456 TEAM SWIFT
5 Amara Boursaw   Renton , WA01:46:22.0 170202  2452 GREGGS TREK VW
6 Michelle LaFleur   Discovery Bay, CA01:54:21.1 204663  2454 TEAM SWIFT
7 Elissa Stolman   Mill Valley, CA01:55:42.4 197365  2453 BAY AREA VELO GIRLS
8 Danielle Griffo   Homewood, CA01:58:10.3 182948  2450 

Women - Junior - JR - 17-18

 Place NameCity, StateTime USAC #BibTeam
1 Lia Winfield   Davis, CA01:41:49.1 200380  2350 TEAM SWIFT
2 Brett Dollar   Middlebury, VT01:42:28.1 206975  2351 
3 Caitlin Gibbs   Steamboat Springs, CO01:44:37.8 127100  2353 TEAM RIO GRANDE

Women - Master - MR - 30-39

 Place NameCity, StateTime USAC #BibTeam
2 Betina Hold   El Dorado Hills, CA02:36:14.8 179385  2014 
3 Lisa Norris   Sunnyvale, CA02:36:27.8 186015  2010 WEBCOR BUILDERS
5 TAMARA HOUSE   02:38:41.7  2018 HI TECH
6 CLAUDIA KAMMERER   02:38:42.2  2000 
7 LUCIANA VECCHI   02:45:18.8  2020 SPECIALIZED
8 Kori Kunz   Eugene, OR02:45:44.2 83379  2015 FRED MEYER
9 LAUREN SMITH   02:47:47.4  2019 SPECIALIZED
10 Jennifer Wilson   Van Nuys, CA02:52:28.5 210833  2012 
11 GEORGENE PANTELAS   02:58:10.7  2005 
12 JENNIFER WHALL   02:58:39.7  2011 
DNP BRIDGET FELLOWS   03:14:55  2004 

Women - Master - MR - 40-99

 Place NameCity, StateTime USAC #BibTeam
1 LAURA CHARAMEDA   02:36:04.5  2130 DEWARS
3 Tracy Lillig   San Ramon, CA02:36:29.0 181215  2113 VELO BELLA
4 Elizabeth Benishin   Palo Alto, CA02:36:36.5 75937  2111 SAN DIEGO CYCLOVETS
5 Kimberley Boester   Cupertino, CA02:37:13.2 50449  2128 WEBCOR BUILDERS
6 Susan Thompson   Los Angeles, CA02:37:15.6 187715  2110 ZOMBIES
8 Laura Perdew   Irvine, CA02:39:40.1 73658  2101 BELLA NOVA
9 Jill Gass   Santa Barbara, CA02:39:40.1 12917  2103 
10 Lea Brooks   San Luis Obispo, CA02:39:42.1 51564  2124 MAKO GALAXY GRANOLA
11 Alexandra Tabata   Riverside, CA02:42:17.6 171362  2126 BELLA NOVA
12 Denise Clark   Santa Barbara, CA02:43:40.0 108334  2109 
13 Andrea Mackie   Walnut Creek, CA02:45:45.7 22042  2116 VELO BELLA MOOTS CYCLES
14 Georgene Vairo   Santa Barbara, CA02:49:27.7 197382  2131 BELLA NOVA RACING TEAM
15 Lisa Tonello   Los Alamos, CA02:52:01.2 88536  2123 
16 Angela Bell   Santa Barbara, CA02:52:18.5 172401  2105 BELLA NOVA
17 Julie Trimble   Boise, ID02:53:36.1 169797  2129 MAGURA/TREASURE VALLEY CYCLING TEAM
18 WENDY WARD   02:54:45.0  2100 
19 Phyllis Olrich   Grass Valley, CA02:57:54.0 125288  2107 WEBCOR/ALTO VELO
20 Corrie Roberts   West Rockport, ME02:59:45.2 193454  2106 BIKEMAN.COM
21 Nancy Seidler   Irvine, CA02:59:45.2 115569  2127 BELLA NOVA RACING TEAM
22 MIRIAM GARFINKEL   03:13:55  2112 
23 DENISE RAMIREZ   03:13:55  2115 VELLO BELLA

Women - U23 - 1-23

 Place NameCity, StateTime USAC #BibTeam
1 LANA ERIKSSON   02:12:12.8  452 
2 SERENA SHERIDAN   02:12:13.1  450 

Women - Cat 3/4

 Place NameCity, StateTime USAC #BibTeam
1 Ryan Layhee   Sonora, CA02:29:19.2 190508  2275 
2 Jenn Halladay   Kuna, ID02:29:25.8 192738  2234 
3 Phoebe Dameron   Bishop, CA02:29:38.8 190596  2273 3BRT/RITCHEY ORGANIC ATHLETE
4 Linda Gallo   Mountain View, CA02:29:39.0 206925  2255 MONTA VISTA VELO
5 Lisa Romanoski   Albany, CA02:29:42.0 208759  2233 
6 AMORY ROWE   02:30:17.2  2282 
7 Erin Alders   Nevada City, CA02:30:17.7 196090  2250 VELO BELLA
9 Holly Harris   Menlo Park, CA02:30:45.5 15191  2267 
10 Jennifer Joynt   Berkeley, CA02:31:17.5 197431  2209 CYCLE COURIERS OF SF
11 Michelle LaPierre   Ventura, CA02:31:46.1 200124  2221 ECHELON SANTA BARBARA
12 Brooke Miller   Sebastopol, CA02:32:31.7 196453  2288 UCSC
13 Carrie Edwards   Sausalito, CA02:33:23.0 99021  2213 SQUADRA OVEST
14 Sarah Lightfoot   Oakland, CA02:34:31.8 188948  2218 MCGUIRE REAL ESTATE
15 NATALIE MIK   02:35:34.2  2284 DAVIS BIKE CLUB
17 Jane Ziegler   Tulsa, OK02:36:23.8 197200  2241 
18 Nancy Farzan   San Francisco, CA02:37:44.7 203697  2256 SQUADRA OVEST
19 PAULA BURKS   02:37:49.0  2210 
20 Monica Neilson   Brentwood, CA02:38:00.5 191346  2220 VELO BELLA
21 Sally Johnson   San Rafael, CA02:38:06.9 204723  2231 
22 Rita Szeto   Crockett, CA02:38:12.5 195322  2265 SOLANO AVENUE CYCLERY
23 Laura Sanchez   Salinas, CA02:38:20.0 169832  2261 VELOBELLA
24 tricia gellman   Sausalito, CA02:38:21.4 204299  2204 
25 Jennifer Chapman   Bend, OR02:38:23.4 198814  2217 VELO BELLA
26 Tracey Ford   San Jose, CA02:38:31.9 204138  2270 BAY AREA VELO GIRLS
27 Kim Weins   Boulder, CO02:38:49.2 203613  2259 BAY AREA VELO GIRLS
28 Suzanne Schlosberg   Santa Monica, CA02:38:52.3 157741  2245 LA GRANGE
29 Brianne Burgess   Saratoga, CA02:38:57.6 204772  2223 DAVIS BIKE CLUB
31 Holly Azevedo   Twain Harte, CA02:41:16.1 187371  2230 DELTA VELO
32 Bridget Ragan   Davis, CA02:44:20.2 204670  2271 
33 Elizabeth Tenuto   El Dorado Hills, CA02:46:51.8 195386  2214 
34 WHITNEY HENDERSON   02:47:04.8  2232 
35 SANDY LIAW   02:47:49.7  2287 ARETE RACING
36 Elizabeth Varner   Oakland, CA02:48:46.6 197942  2276 
37 COURTENAY BROWN   02:51:24.6  2216 
38 DENISE KIRCHER   02:51:25.7  2219 
39 MANDY MCCOY   02:51:25.8  2205 
40 CRYSTAL PREDEEK   02:51:26.5  2253 FUSION SPORT
41 Angela Merson   Lafayette, CA02:52:32.6 187484  2215 LEFT COAST RACING TEAM
42 PATTY SELBICKY   02:52:48.2  2240 VELO CLUB MONTEREY
43 HEIDI HAUSSERMANN   02:52:48.2  2226 VELO CLUB MONTEREY
44 NANCY HARDIN   02:52:48.2  2248 
45 MIREYA DE LA VEGA   02:52:48.3  2281 TEAM BAY BABES
46 Laurie Simonson   Burlingame, CA02:52:56.9 138341  2201 
47 Julie Baird   Burlingame, CA02:52:59.3 187930  2208 
48 Karen Tomlinson   San Francisco, CA02:53:06.9 195535  2202 
49 VALERIE POULIN   02:54:15.7  2227 MOOTS
50 LAURA CUDA   03:09:55  2206 
51 LESLIE DAIGLE   03:26:13  2249 CYCLES VELOCE

Report missing or incorrect license numbers

Volkswagen
SpyShimanoCUOREOSMOSierra NevadaBonk BreakerUSACDF
UCI USA Cycling is the official governing body for all disciplines of competitive cycling in the United States. The 501c3, membership-based organization aims both to achieve sustained success in international cycling competition and to grow competitive cycling in America while delivering an exceptional customer experience.
View Children's Online Privacy Protection Policy
US Olympic Committee